createdAt,value
2022-12-31T00:01:13.875Z,12.67
2022-12-31T00:03:42.365Z,12.65
2022-12-31T00:06:16.596Z,12.69
2022-12-31T00:08:44.433Z,12.64
2022-12-31T00:11:13.102Z,12.60
2022-12-31T00:13:41.045Z,12.54
2022-12-31T00:16:12.476Z,12.46
2022-12-31T00:18:40.495Z,12.54
2022-12-31T00:21:09.155Z,12.56
2022-12-31T00:23:38.317Z,12.50
2022-12-31T00:26:07.884Z,12.55
2022-12-31T00:28:37.653Z,12.45
2022-12-31T00:31:09.837Z,12.29
2022-12-31T00:33:37.683Z,12.40
2022-12-31T00:36:11.481Z,12.31
2022-12-31T00:38:41.289Z,12.42
2022-12-31T00:41:08.964Z,12.51
2022-12-31T00:43:36.819Z,12.53
2022-12-31T00:46:05.804Z,12.52
2022-12-31T00:48:34.244Z,12.64
2022-12-31T00:51:02.696Z,12.67
2022-12-31T00:53:30.489Z,12.58
2022-12-31T00:56:06.094Z,12.63
2022-12-31T00:58:34.225Z,12.57
2022-12-31T01:01:09.575Z,12.50
2022-12-31T01:03:37.490Z,12.51
2022-12-31T01:06:05.338Z,12.44
2022-12-31T01:08:32.859Z,12.39
2022-12-31T01:11:22.017Z,12.44
2022-12-31T01:13:53.897Z,12.37
2022-12-31T01:16:23.515Z,12.39
2022-12-31T01:18:51.919Z,12.38
2022-12-31T01:21:20.590Z,12.39
2022-12-31T01:23:48.109Z,12.39
2022-12-31T01:26:19.111Z,12.40
2022-12-31T01:28:47.199Z,12.42
2022-12-31T01:31:17.180Z,12.41
2022-12-31T01:33:44.981Z,12.47
2022-12-31T01:36:14.187Z,12.46
2022-12-31T01:38:42.217Z,12.47
2022-12-31T01:41:12.959Z,12.53
2022-12-31T01:43:48.345Z,12.51
2022-12-31T01:46:24.522Z,12.51
2022-12-31T01:48:57.156Z,12.54
2022-12-31T01:51:28.211Z,12.58
2022-12-31T01:53:56.263Z,12.55
2022-12-31T01:56:24.826Z,12.64
2022-12-31T01:58:56.774Z,12.70
2022-12-31T02:01:27.872Z,12.71
2022-12-31T02:03:56.682Z,12.72
2022-12-31T02:06:29.870Z,12.69
2022-12-31T02:08:58.953Z,12.69
2022-12-31T02:11:29.107Z,12.65
2022-12-31T02:14:01.204Z,12.68
2022-12-31T02:16:35.319Z,12.72
2022-12-31T02:19:18.334Z,12.77
2022-12-31T02:21:53.492Z,12.74
2022-12-31T02:24:35.800Z,12.78
2022-12-31T02:27:09.775Z,12.85
2022-12-31T02:30:08.415Z,12.92
2022-12-31T02:32:46.709Z,12.95
2022-12-31T02:35:20.137Z,12.98
2022-12-31T02:37:53.079Z,13.08
2022-12-31T02:40:23.128Z,13.14
2022-12-31T02:42:55.258Z,13.13
2022-12-31T02:45:30.006Z,13.19
2022-12-31T02:48:13.602Z,13.25
2022-12-31T02:50:56.216Z,13.29
2022-12-31T02:53:40.225Z,13.31
2022-12-31T02:56:17.443Z,13.28
2022-12-31T02:59:12.034Z,13.34
2022-12-31T03:02:05.314Z,13.35
2022-12-31T03:04:36.059Z,13.33
2022-12-31T03:07:05.891Z,13.23
2022-12-31T03:09:33.584Z,13.21
2022-12-31T03:12:19.924Z,13.28
2022-12-31T03:14:47.502Z,13.32
2022-12-31T03:17:16.499Z,13.33
2022-12-31T03:20:01.344Z,13.30
2022-12-31T03:22:28.892Z,13.33
2022-12-31T03:25:16.688Z,13.34
2022-12-31T03:27:44.581Z,13.30
2022-12-31T03:30:13.600Z,13.36
2022-12-31T03:32:43.325Z,13.33
2022-12-31T03:35:12.942Z,13.35
2022-12-31T03:37:41.401Z,13.34
2022-12-31T03:40:11.349Z,13.39
2022-12-31T03:42:38.963Z,13.31
2022-12-31T03:45:07.518Z,13.46
2022-12-31T03:47:34.992Z,13.52
2022-12-31T03:50:04.086Z,13.51
2022-12-31T03:52:31.555Z,13.49
2022-12-31T03:54:59.052Z,13.51
2022-12-31T03:57:26.600Z,13.66
2022-12-31T03:59:54.054Z,13.61
2022-12-31T04:02:28.086Z,13.65
2022-12-31T04:04:56.224Z,13.72
2022-12-31T04:07:25.141Z,13.75
2022-12-31T04:09:52.612Z,13.76
2022-12-31T04:12:20.167Z,13.81
2022-12-31T04:14:47.641Z,13.84
2022-12-31T04:17:15.128Z,13.88
2022-12-31T04:19:42.616Z,13.91
2022-12-31T04:22:10.254Z,13.96
2022-12-31T04:24:39.095Z,13.97
2022-12-31T04:27:08.065Z,13.91
2022-12-31T04:29:36.008Z,13.97
2022-12-31T04:32:04.055Z,14.04
2022-12-31T04:34:31.911Z,14.07
2022-12-31T04:37:01.972Z,14.03
2022-12-31T04:39:29.494Z,13.89
2022-12-31T04:41:58.339Z,13.89
2022-12-31T04:44:25.831Z,13.94
2022-12-31T04:46:53.472Z,13.98
2022-12-31T04:49:21.086Z,13.86
2022-12-31T04:51:48.559Z,13.87
2022-12-31T04:54:16.027Z,13.97
2022-12-31T04:56:43.496Z,14.07
2022-12-31T04:59:12.892Z,13.97
2022-12-31T05:01:40.460Z,14.06
2022-12-31T05:04:07.987Z,14.03
2022-12-31T05:06:35.528Z,14.13
2022-12-31T05:09:03.005Z,14.17
2022-12-31T05:11:30.554Z,14.18
2022-12-31T05:13:58.020Z,14.23
2022-12-31T05:16:26.887Z,14.25
2022-12-31T05:18:54.467Z,14.30
2022-12-31T05:21:22.592Z,14.29
2022-12-31T05:23:50.617Z,14.36
2022-12-31T05:26:18.275Z,14.35
2022-12-31T05:28:45.752Z,14.38
2022-12-31T05:31:14.346Z,14.39
2022-12-31T05:33:43.247Z,14.42
2022-12-31T05:36:10.819Z,14.48
2022-12-31T05:38:38.888Z,14.39
2022-12-31T05:41:08.733Z,14.43
2022-12-31T05:43:36.206Z,14.46
2022-12-31T05:46:05.206Z,14.47
2022-12-31T05:48:33.158Z,14.58
2022-12-31T05:51:01.961Z,14.58
2022-12-31T05:53:29.448Z,14.57
2022-12-31T05:55:56.956Z,14.57
2022-12-31T05:58:24.478Z,14.65
2022-12-31T06:00:52.270Z,14.65
2022-12-31T06:03:19.836Z,14.70
2022-12-31T06:05:47.479Z,14.75
2022-12-31T06:08:16.306Z,14.71
2022-12-31T06:10:43.819Z,14.71
2022-12-31T06:13:11.324Z,14.70
2022-12-31T06:15:40.408Z,14.73
2022-12-31T06:18:08.297Z,14.77
2022-12-31T06:20:37.591Z,14.76
2022-12-31T06:23:05.435Z,14.78
2022-12-31T06:25:35.534Z,14.78
2022-12-31T06:28:03.075Z,14.82
2022-12-31T06:30:30.577Z,14.79
2022-12-31T06:32:58.142Z,14.75
2022-12-31T06:35:25.656Z,14.74
2022-12-31T06:37:53.374Z,14.81
2022-12-31T06:40:20.859Z,14.89
2022-12-31T06:42:53.399Z,14.89
2022-12-31T06:45:25.326Z,14.91
2022-12-31T06:47:52.792Z,14.95
2022-12-31T06:50:20.327Z,14.91
2022-12-31T06:52:47.761Z,14.91
2022-12-31T06:55:16.416Z,14.88
2022-12-31T06:57:44.486Z,14.88
2022-12-31T07:00:15.004Z,14.83
2022-12-31T07:03:10.171Z,14.93
2022-12-31T07:05:46.893Z,14.95
2022-12-31T07:08:28.057Z,14.99
2022-12-31T07:11:01.585Z,14.95
2022-12-31T07:14:05.505Z,14.84
2022-12-31T07:16:48.105Z,14.83
2022-12-31T07:19:28.023Z,14.79
2022-12-31T07:21:59.338Z,14.91
2022-12-31T07:24:27.644Z,14.88
2022-12-31T07:27:13.710Z,14.96
2022-12-31T07:29:57.550Z,14.96
2022-12-31T07:32:42.573Z,15.01
2022-12-31T07:35:18.398Z,14.91
2022-12-31T07:37:52.537Z,14.94
2022-12-31T07:40:30.031Z,14.99
2022-12-31T07:43:08.529Z,15.01
2022-12-31T07:45:43.447Z,15.00
2022-12-31T07:48:23.389Z,15.09
2022-12-31T07:50:51.758Z,15.00
2022-12-31T07:53:19.757Z,14.98
2022-12-31T07:55:47.688Z,15.08
2022-12-31T07:58:23.046Z,15.10
2022-12-31T08:00:52.564Z,15.03
2022-12-31T08:03:36.023Z,14.97
2022-12-31T08:06:12.715Z,15.07
2022-12-31T08:08:50.585Z,14.99
2022-12-31T08:11:26.600Z,15.04
2022-12-31T08:13:56.997Z,15.15
2022-12-31T08:16:25.006Z,15.18
2022-12-31T08:18:54.495Z,15.10
2022-12-31T08:21:34.820Z,15.13
2022-12-31T08:24:13.507Z,15.15
2022-12-31T08:26:53.032Z,15.14
2022-12-31T08:29:34.644Z,15.25
2022-12-31T08:32:12.962Z,15.28
2022-12-31T08:34:53.580Z,15.18
2022-12-31T08:37:29.771Z,15.22
2022-12-31T08:40:13.866Z,15.27
2022-12-31T08:42:53.637Z,15.31
2022-12-31T08:45:31.664Z,15.21
2022-12-31T08:48:04.200Z,15.30
2022-12-31T08:50:33.814Z,15.20
2022-12-31T08:53:02.063Z,15.34
2022-12-31T08:55:30.323Z,15.34
2022-12-31T08:58:11.133Z,15.36
2022-12-31T09:00:39.724Z,15.42
2022-12-31T09:03:27.023Z,15.45
2022-12-31T09:06:03.645Z,15.35
2022-12-31T09:08:39.188Z,15.32
2022-12-31T09:11:17.686Z,15.29
2022-12-31T09:14:10.780Z,15.43
2022-12-31T09:16:45.612Z,15.45
2022-12-31T09:19:13.103Z,15.34
2022-12-31T09:21:44.273Z,15.40
2022-12-31T09:24:13.479Z,15.44
2022-12-31T09:26:51.905Z,15.42
2022-12-31T09:29:32.730Z,15.50
2022-12-31T09:32:09.682Z,15.50
2022-12-31T09:34:45.904Z,15.44
2022-12-31T09:37:17.323Z,15.37
2022-12-31T09:39:46.978Z,15.54
2022-12-31T09:42:48.661Z,15.55
2022-12-31T09:45:54.937Z,15.62
2022-12-31T09:48:34.684Z,15.63
2022-12-31T09:51:20.303Z,15.57
2022-12-31T09:54:29.778Z,15.49
2022-12-31T09:57:08.739Z,15.47
2022-12-31T09:59:44.088Z,15.54
2022-12-31T10:02:24.662Z,15.57
2022-12-31T10:05:13.833Z,15.60
2022-12-31T10:07:53.529Z,15.59
2022-12-31T10:10:25.421Z,15.60
2022-12-31T10:13:10.149Z,15.61
2022-12-31T10:16:00.018Z,15.61
2022-12-31T10:18:43.978Z,15.66
2022-12-31T10:21:27.981Z,15.69
2022-12-31T10:24:35.200Z,15.74
2022-12-31T10:27:37.301Z,15.68
2022-12-31T10:30:16.114Z,15.72
2022-12-31T10:32:46.227Z,15.78
2022-12-31T10:35:24.503Z,15.83
2022-12-31T10:38:00.472Z,15.87
2022-12-31T10:40:48.996Z,15.81
2022-12-31T10:43:49.238Z,15.79
2022-12-31T10:46:43.840Z,15.74
2022-12-31T10:49:48.830Z,15.73
2022-12-31T10:52:47.931Z,15.78
2022-12-31T10:55:37.329Z,15.70
2022-12-31T10:58:30.433Z,15.77
2022-12-31T11:01:08.438Z,15.69
2022-12-31T11:04:11.508Z,15.77
2022-12-31T11:07:04.350Z,15.76
2022-12-31T11:10:09.535Z,15.86
2022-12-31T11:12:57.491Z,16.00
2022-12-31T11:15:50.425Z,15.94
2022-12-31T11:18:31.813Z,15.98
2022-12-31T11:21:14.574Z,15.99
2022-12-31T11:23:53.446Z,16.05
2022-12-31T11:26:34.481Z,16.04
2022-12-31T11:29:16.899Z,15.99
2022-12-31T11:32:14.636Z,16.01
2022-12-31T11:35:18.917Z,16.08
2022-12-31T11:37:48.638Z,15.97
2022-12-31T11:40:33.052Z,15.98
2022-12-31T11:43:04.856Z,15.93
2022-12-31T11:45:52.697Z,15.96
2022-12-31T11:48:30.950Z,15.97
2022-12-31T11:51:14.486Z,15.96
2022-12-31T11:54:04.880Z,15.89
2022-12-31T11:56:36.344Z,15.88
2022-12-31T11:59:15.732Z,15.90
2022-12-31T12:01:54.507Z,15.84
2022-12-31T12:04:22.016Z,15.83
2022-12-31T12:06:51.467Z,15.93
2022-12-31T12:09:26.904Z,15.89
2022-12-31T12:12:00.125Z,15.90
2022-12-31T12:14:33.454Z,15.98
2022-12-31T12:17:05.253Z,16.00
2022-12-31T12:19:34.683Z,15.89
2022-12-31T12:22:12.771Z,15.80
2022-12-31T12:24:40.519Z,15.71
2022-12-31T12:27:21.920Z,15.86
2022-12-31T12:29:49.615Z,15.83
2022-12-31T12:32:19.993Z,15.74
2022-12-31T12:34:50.115Z,15.69
2022-12-31T12:37:29.080Z,15.63
2022-12-31T12:39:58.526Z,15.75
2022-12-31T12:42:26.257Z,15.76
2022-12-31T12:45:05.459Z,15.75
2022-12-31T12:47:34.165Z,15.67
2022-12-31T12:50:02.032Z,15.45
2022-12-31T12:52:52.757Z,15.42
2022-12-31T12:55:28.069Z,15.47
2022-12-31T12:58:05.332Z,15.42
2022-12-31T13:00:38.634Z,15.29
2022-12-31T13:03:35.819Z,15.41
2022-12-31T13:06:18.644Z,15.46
2022-12-31T13:09:02.201Z,15.35
2022-12-31T13:11:37.864Z,15.29
2022-12-31T13:14:16.410Z,15.36
2022-12-31T13:16:48.519Z,15.36
2022-12-31T13:19:23.147Z,15.38
2022-12-31T13:21:58.815Z,15.41
2022-12-31T13:24:43.981Z,15.44
2022-12-31T13:27:20.023Z,15.37
2022-12-31T13:29:49.340Z,15.39
2022-12-31T13:32:20.969Z,15.41
2022-12-31T13:34:52.804Z,15.47
2022-12-31T13:37:28.134Z,15.35
2022-12-31T13:40:03.498Z,15.35
2022-12-31T13:42:40.950Z,15.35
2022-12-31T13:45:14.536Z,15.24
2022-12-31T13:47:46.904Z,15.24
2022-12-31T13:50:20.132Z,15.32
2022-12-31T13:52:52.298Z,15.38
2022-12-31T13:55:25.219Z,15.41
2022-12-31T13:57:57.596Z,15.39
2022-12-31T14:00:27.373Z,15.40
2022-12-31T14:03:11.302Z,15.48
2022-12-31T14:05:48.275Z,15.52
2022-12-31T14:08:16.719Z,15.53
2022-12-31T14:10:58.603Z,15.53
2022-12-31T14:13:38.555Z,15.47
2022-12-31T14:16:16.120Z,15.60
2022-12-31T14:18:53.680Z,15.49
2022-12-31T14:21:25.069Z,15.42
2022-12-31T14:24:00.389Z,15.40
2022-12-31T14:26:34.043Z,15.48
2022-12-31T14:29:15.438Z,15.45
2022-12-31T14:32:02.344Z,15.39
2022-12-31T14:34:36.408Z,15.45
2022-12-31T14:37:12.844Z,15.43
2022-12-31T14:39:49.345Z,15.53
2022-12-31T14:42:29.632Z,15.46
2022-12-31T14:45:08.400Z,15.19
2022-12-31T14:47:51.394Z,15.28
2022-12-31T14:50:23.661Z,15.32
2022-12-31T14:52:53.901Z,15.26
2022-12-31T14:55:29.827Z,15.11
2022-12-31T15:00:56.573Z,15.03
2022-12-31T15:03:27.453Z,14.94
2022-12-31T15:06:00.163Z,15.03
2022-12-31T15:08:41.807Z,14.91
2022-12-31T15:11:24.155Z,14.88
2022-12-31T15:14:22.813Z,14.91
2022-12-31T15:16:57.606Z,14.88
2022-12-31T15:19:47.269Z,14.99
2022-12-31T15:22:28.730Z,15.13
2022-12-31T15:24:56.586Z,15.09
2022-12-31T15:27:34.531Z,15.06
2022-12-31T15:30:04.800Z,14.92
2022-12-31T15:32:36.917Z,14.89
2022-12-31T15:35:25.491Z,15.04
2022-12-31T15:38:00.069Z,14.99
2022-12-31T15:40:29.028Z,14.97
2022-12-31T15:43:02.176Z,15.03
2022-12-31T15:45:34.820Z,15.01
2022-12-31T15:48:07.875Z,14.92
2022-12-31T15:50:37.920Z,15.01
2022-12-31T15:53:07.538Z,15.08
2022-12-31T15:55:43.252Z,15.01
2022-12-31T15:58:13.222Z,14.96
2022-12-31T16:00:57.320Z,15.15
2022-12-31T16:03:27.890Z,15.12
2022-12-31T16:06:00.927Z,15.05
2022-12-31T16:08:32.021Z,15.05
2022-12-31T16:11:00.264Z,15.10
2022-12-31T16:13:30.423Z,15.11
2022-12-31T16:16:03.741Z,15.14
2022-12-31T16:18:38.869Z,15.21
2022-12-31T16:21:06.983Z,15.22
2022-12-31T16:23:40.380Z,15.19
2022-12-31T16:26:11.964Z,15.13
2022-12-31T16:28:39.502Z,15.17
2022-12-31T16:31:17.564Z,15.30
2022-12-31T16:33:45.391Z,15.08
2022-12-31T16:36:20.820Z,15.17
2022-12-31T16:38:49.139Z,15.12
2022-12-31T16:41:19.543Z,15.06
2022-12-31T16:43:48.329Z,15.07
2022-12-31T16:46:21.165Z,15.12
2022-12-31T16:48:51.457Z,15.00
2022-12-31T16:51:22.010Z,15.00
2022-12-31T16:53:50.378Z,14.99
2022-12-31T16:56:25.085Z,15.05
2022-12-31T16:58:59.487Z,15.02
2022-12-31T17:01:31.437Z,14.90
2022-12-31T17:04:01.573Z,14.92
2022-12-31T17:06:33.213Z,14.89
2022-12-31T17:09:14.384Z,14.88
2022-12-31T17:11:50.320Z,14.85
2022-12-31T17:14:19.913Z,14.93
2022-12-31T17:17:03.502Z,15.01
2022-12-31T17:19:41.265Z,14.96
2022-12-31T17:22:14.130Z,14.88
2022-12-31T17:24:41.685Z,15.01
2022-12-31T17:27:10.400Z,14.80
2022-12-31T17:29:38.292Z,14.83
2022-12-31T17:32:26.400Z,14.88
2022-12-31T17:34:53.911Z,14.87
2022-12-31T17:37:26.135Z,14.83
2022-12-31T17:39:55.103Z,14.87
2022-12-31T17:42:57.163Z,14.93
2022-12-31T17:48:46.875Z,14.83
2022-12-31T17:51:14.587Z,14.73
2022-12-31T17:57:52.999Z,14.79
2022-12-31T18:00:22.680Z,14.72
2022-12-31T18:02:50.441Z,14.79
2022-12-31T18:05:26.495Z,14.84
2022-12-31T18:08:07.267Z,14.76
2022-12-31T18:10:45.594Z,14.76
2022-12-31T18:13:20.726Z,14.76
2022-12-31T18:15:52.974Z,14.91
2022-12-31T18:18:26.165Z,14.74
2022-12-31T18:21:01.254Z,14.73
2022-12-31T18:23:34.344Z,14.69
2022-12-31T18:26:04.996Z,14.71
2022-12-31T18:28:38.104Z,14.81
2022-12-31T18:31:05.748Z,14.80
2022-12-31T18:33:33.466Z,14.71
2022-12-31T18:36:10.545Z,14.70
2022-12-31T18:38:39.213Z,14.65
2022-12-31T18:41:07.942Z,14.77
2022-12-31T18:43:35.462Z,14.69
2022-12-31T18:46:11.679Z,14.75
2022-12-31T18:48:41.259Z,14.70
2022-12-31T18:51:13.303Z,14.74
2022-12-31T18:53:40.778Z,14.74
2022-12-31T18:56:13.111Z,14.64
2022-12-31T18:58:40.706Z,14.68
2022-12-31T19:01:25.191Z,14.74
2022-12-31T19:03:52.919Z,14.76
2022-12-31T19:06:22.687Z,14.73
2022-12-31T19:08:50.216Z,14.71
2022-12-31T19:11:17.866Z,14.79
2022-12-31T19:13:45.600Z,14.72
2022-12-31T19:16:13.861Z,14.86
2022-12-31T19:18:42.198Z,14.69
2022-12-31T19:21:16.418Z,14.78
2022-12-31T19:23:45.732Z,14.70
2022-12-31T19:26:16.357Z,14.64
2022-12-31T19:28:44.478Z,14.69
2022-12-31T19:31:12.407Z,14.80
2022-12-31T19:33:39.906Z,14.69
2022-12-31T19:36:14.472Z,14.70
2022-12-31T19:38:41.985Z,14.77
2022-12-31T19:41:15.887Z,14.76
2022-12-31T19:43:43.762Z,14.85
2022-12-31T19:46:13.404Z,14.81
2022-12-31T19:48:40.974Z,14.79
2022-12-31T19:51:10.220Z,14.70
2022-12-31T19:53:37.779Z,14.73
2022-12-31T19:56:06.092Z,14.82
2022-12-31T19:58:34.871Z,14.86
2022-12-31T20:01:03.437Z,14.75
2022-12-31T20:03:32.350Z,14.78
2022-12-31T20:06:05.459Z,14.80
2022-12-31T20:08:33.382Z,14.85
2022-12-31T20:11:08.574Z,14.91
2022-12-31T20:13:37.292Z,14.88
2022-12-31T20:16:07.689Z,14.87
2022-12-31T20:18:37.434Z,14.91
2022-12-31T20:21:05.347Z,14.91
2022-12-31T20:23:34.189Z,14.89
2022-12-31T20:26:02.507Z,14.85
2022-12-31T20:28:30.651Z,14.79
2022-12-31T20:30:59.526Z,14.85
2022-12-31T20:33:27.029Z,14.90
2022-12-31T20:35:54.470Z,14.83
2022-12-31T20:38:21.991Z,14.88
2022-12-31T20:40:49.715Z,14.82
2022-12-31T20:43:17.205Z,14.85
2022-12-31T20:45:44.776Z,14.79
2022-12-31T20:48:13.640Z,14.88
2022-12-31T20:50:41.093Z,14.92
2022-12-31T20:53:08.562Z,14.92
2022-12-31T20:55:38.653Z,14.91
2022-12-31T20:58:06.268Z,14.90
2022-12-31T21:00:33.776Z,14.87
2022-12-31T21:03:14.407Z,14.90
2022-12-31T21:05:51.706Z,14.96
2022-12-31T21:08:20.591Z,14.99
2022-12-31T21:10:50.807Z,14.99
2022-12-31T21:13:21.508Z,14.98
2022-12-31T21:15:49.342Z,15.09
2022-12-31T21:18:17.430Z,15.09
2022-12-31T21:20:47.073Z,15.13
2022-12-31T21:23:16.052Z,15.11
2022-12-31T21:25:44.353Z,15.15
2022-12-31T21:28:12.711Z,15.15
2022-12-31T21:30:40.881Z,15.12
2022-12-31T21:33:09.060Z,15.23
2022-12-31T21:35:48.681Z,15.29
2022-12-31T21:38:22.935Z,15.23
2022-12-31T21:40:50.494Z,15.25
2022-12-31T21:43:18.410Z,15.20
2022-12-31T21:45:45.892Z,15.23
2022-12-31T21:48:21.297Z,15.16
2022-12-31T21:50:50.624Z,15.16
2022-12-31T21:53:23.721Z,15.21
2022-12-31T21:56:08.291Z,15.14
2022-12-31T21:58:36.543Z,15.23
2022-12-31T22:01:22.587Z,15.18
2022-12-31T22:03:50.381Z,15.18
2022-12-31T22:06:21.475Z,15.12
2022-12-31T22:08:51.368Z,15.20
2022-12-31T22:11:22.068Z,15.18
2022-12-31T22:13:49.985Z,15.10
2022-12-31T22:16:19.955Z,15.09
2022-12-31T22:18:48.090Z,15.12
2022-12-31T22:21:19.178Z,15.17
2022-12-31T22:23:48.253Z,15.15
2022-12-31T22:26:17.732Z,15.11
2022-12-31T22:28:47.513Z,15.11
2022-12-31T22:31:16.740Z,15.18
2022-12-31T22:33:44.847Z,15.21
2022-12-31T22:36:14.475Z,15.08
2022-12-31T22:38:41.968Z,15.06
2022-12-31T22:41:11.457Z,15.10
2022-12-31T22:43:41.289Z,15.13
2022-12-31T22:46:12.803Z,15.15
2022-12-31T22:48:41.487Z,15.09
2022-12-31T22:51:10.000Z,15.14
2022-12-31T22:53:38.405Z,15.14
2022-12-31T22:56:06.490Z,15.12
2022-12-31T22:58:34.621Z,15.12
2022-12-31T23:01:05.567Z,15.16
2022-12-31T23:03:34.591Z,15.14
2022-12-31T23:06:02.124Z,15.15
2022-12-31T23:08:29.761Z,15.26
2022-12-31T23:11:01.557Z,15.25
2022-12-31T23:13:51.090Z,15.24
2022-12-31T23:16:37.015Z,15.17
2022-12-31T23:19:23.961Z,15.21
2022-12-31T23:22:09.289Z,15.24
2022-12-31T23:24:37.199Z,15.24
2022-12-31T23:27:04.873Z,15.26
2022-12-31T23:29:32.539Z,15.25
2022-12-31T23:32:00.612Z,15.22
2022-12-31T23:34:29.413Z,15.23
2022-12-31T23:36:56.925Z,15.26
2022-12-31T23:39:24.439Z,15.34
2022-12-31T23:41:51.879Z,15.24
2022-12-31T23:44:19.634Z,15.36
2022-12-31T23:46:47.176Z,15.31
2022-12-31T23:49:14.706Z,15.20
2022-12-31T23:51:43.649Z,15.24
2022-12-31T23:54:12.663Z,15.41
2022-12-31T23:56:40.178Z,15.51
2022-12-31T23:59:07.772Z,15.46
